sensor_id;sensor_type;location;lat;lon;timestamp;pressure;altitude;pressure_sealevel;temperature;humidity
29215;BME280;16252;49.816;7.964;2023-03-31T00:01:10;99213.19;;;13.57;60.12
29215;BME280;16252;49.816;7.964;2023-03-31T00:03:36;99228.00;;;13.61;60.27
29215;BME280;16252;49.816;7.964;2023-03-31T00:06:04;99219.25;;;13.59;60.39
29215;BME280;16252;49.816;7.964;2023-03-31T00:08:30;99232.25;;;13.63;60.50
29215;BME280;16252;49.816;7.964;2023-03-31T00:11:00;99225.19;;;13.62;60.55
29215;BME280;16252;49.816;7.964;2023-03-31T00:13:27;99188.19;;;13.38;60.50
29215;BME280;16252;49.816;7.964;2023-03-31T00:15:57;99215.88;;;13.57;60.82
29215;BME280;16252;49.816;7.964;2023-03-31T00:18:22;99214.34;;;13.54;60.47
29215;BME280;16252;49.816;7.964;2023-03-31T00:20:50;99186.97;;;13.33;60.87
29215;BME280;16252;49.816;7.964;2023-03-31T00:23:17;99190.41;;;13.25;60.84
29215;BME280;16252;49.816;7.964;2023-03-31T00:25:43;99206.28;;;13.36;61.14
29215;BME280;16252;49.816;7.964;2023-03-31T00:28:08;99196.56;;;13.35;60.82
29215;BME280;16252;49.816;7.964;2023-03-31T00:30:33;99167.97;;;13.16;60.68
29215;BME280;16252;49.816;7.964;2023-03-31T00:32:59;99184.75;;;13.28;60.48
29215;BME280;16252;49.816;7.964;2023-03-31T00:35:24;99197.16;;;13.29;60.76
29215;BME280;16252;49.816;7.964;2023-03-31T00:37:50;99179.28;;;13.20;60.92
29215;BME280;16252;49.816;7.964;2023-03-31T00:40:15;99192.50;;;13.31;60.83
29215;BME280;16252;49.816;7.964;2023-03-31T00:42:42;99175.25;;;13.24;60.97
29215;BME280;16252;49.816;7.964;2023-03-31T00:47:45;99181.97;;;13.38;61.43
29215;BME280;16252;49.816;7.964;2023-03-31T00:50:26;99143.19;;;13.22;61.39
29215;BME280;16252;49.816;7.964;2023-03-31T00:53:00;99145.72;;;13.24;61.52
29215;BME280;16252;49.816;7.964;2023-03-31T00:55:32;99140.75;;;13.29;61.72
29215;BME280;16252;49.816;7.964;2023-03-31T00:57:59;99142.78;;;13.27;61.15
29215;BME280;16252;49.816;7.964;2023-03-31T01:00:26;99133.28;;;13.23;61.23
29215;BME280;16252;49.816;7.964;2023-03-31T01:02:55;99136.91;;;13.32;61.32
29215;BME280;16252;49.816;7.964;2023-03-31T01:05:35;99132.31;;;13.42;61.35
29215;BME280;16252;49.816;7.964;2023-03-31T01:08:03;99102.69;;;13.16;61.34
29215;BME280;16252;49.816;7.964;2023-03-31T01:10:32;99102.91;;;13.22;61.71
29215;BME280;16252;49.816;7.964;2023-03-31T01:13:03;99099.00;;;13.17;61.48
29215;BME280;16252;49.816;7.964;2023-03-31T01:15:28;99115.19;;;13.25;61.09
29215;BME280;16252;49.816;7.964;2023-03-31T01:17:54;99111.47;;;13.26;61.13
29215;BME280;16252;49.816;7.964;2023-03-31T01:23:38;99117.34;;;13.39;61.12
29215;BME280;16252;49.816;7.964;2023-03-31T01:26:42;99101.69;;;13.35;61.06
29215;BME280;16252;49.816;7.964;2023-03-31T01:35:00;99087.44;;;13.34;61.50
29215;BME280;16252;49.816;7.964;2023-03-31T01:37:50;99073.38;;;13.22;61.37
29215;BME280;16252;49.816;7.964;2023-03-31T01:43:13;99080.66;;;13.30;61.56
29215;BME280;16252;49.816;7.964;2023-03-31T01:46:00;99062.63;;;13.22;61.31
29215;BME280;16252;49.816;7.964;2023-03-31T01:48:52;99051.56;;;13.26;61.47
29215;BME280;16252;49.816;7.964;2023-03-31T01:51:22;99039.38;;;13.13;61.12
29215;BME280;16252;49.816;7.964;2023-03-31T01:54:15;99041.13;;;13.22;60.19
29215;BME280;16252;49.816;7.964;2023-03-31T01:57:16;99047.31;;;13.41;58.70
29215;BME280;16252;49.816;7.964;2023-03-31T02:00:14;99022.56;;;13.29;59.21
29215;BME280;16252;49.816;7.964;2023-03-31T02:02:51;99030.31;;;13.32;59.71
29215;BME280;16252;49.816;7.964;2023-03-31T02:05:24;99024.00;;;13.23;60.23
29215;BME280;16252;49.816;7.964;2023-03-31T02:10:19;99007.13;;;13.31;60.15
29215;BME280;16252;49.816;7.964;2023-03-31T02:12:46;98995.97;;;13.26;60.03
29215;BME280;16252;49.816;7.964;2023-03-31T02:15:18;98972.59;;;13.18;59.95
29215;BME280;16252;49.816;7.964;2023-03-31T02:17:48;98999.13;;;13.39;59.75
29215;BME280;16252;49.816;7.964;2023-03-31T02:20:16;98976.13;;;13.37;59.71
29215;BME280;16252;49.816;7.964;2023-03-31T02:22:46;98993.09;;;13.46;59.90
29215;BME280;16252;49.816;7.964;2023-03-31T02:25:14;98983.53;;;13.43;59.86
29215;BME280;16252;49.816;7.964;2023-03-31T02:27:46;98962.97;;;13.34;59.76
29215;BME280;16252;49.816;7.964;2023-03-31T02:30:15;98943.75;;;13.20;59.71
29215;BME280;16252;49.816;7.964;2023-03-31T02:32:42;98985.41;;;13.51;59.77
29215;BME280;16252;49.816;7.964;2023-03-31T02:35:12;98954.81;;;13.43;59.97
29215;BME280;16252;49.816;7.964;2023-03-31T02:37:39;98929.06;;;13.33;59.84
29215;BME280;16252;49.816;7.964;2023-03-31T02:40:08;98928.25;;;13.40;59.46
29215;BME280;16252;49.816;7.964;2023-03-31T02:42:39;98942.78;;;13.56;59.21
29215;BME280;16252;49.816;7.964;2023-03-31T02:45:35;98933.88;;;13.55;59.26
29215;BME280;16252;49.816;7.964;2023-03-31T02:47:52;98906.97;;;13.47;59.35
29215;BME280;16252;49.816;7.964;2023-03-31T02:50:21;98908.34;;;13.59;59.12
29215;BME280;16252;49.816;7.964;2023-03-31T02:53:00;98895.78;;;13.60;59.03
29215;BME280;16252;49.816;7.964;2023-03-31T02:55:58;98888.22;;;13.63;59.15
29215;BME280;16252;49.816;7.964;2023-03-31T02:58:41;98884.00;;;13.61;59.42
29215;BME280;16252;49.816;7.964;2023-03-31T03:01:20;98864.81;;;13.48;59.21
29215;BME280;16252;49.816;7.964;2023-03-31T03:07:03;98887.88;;;13.66;59.00
29215;BME280;16252;49.816;7.964;2023-03-31T03:10:03;98868.06;;;13.68;59.24
29215;BME280;16252;49.816;7.964;2023-03-31T03:15:20;98840.31;;;13.59;59.08
29215;BME280;16252;49.816;7.964;2023-03-31T03:17:48;98833.91;;;13.52;59.09
29215;BME280;16252;49.816;7.964;2023-03-31T03:20:19;98826.72;;;13.52;59.02
29215;BME280;16252;49.816;7.964;2023-03-31T03:22:44;98827.38;;;13.54;58.80
29215;BME280;16252;49.816;7.964;2023-03-31T03:25:11;98797.44;;;13.33;59.11
29215;BME280;16252;49.816;7.964;2023-03-31T03:27:37;98829.06;;;13.47;59.10
29215;BME280;16252;49.816;7.964;2023-03-31T03:30:05;98815.94;;;13.44;59.05
29215;BME280;16252;49.816;7.964;2023-03-31T03:32:31;98817.44;;;13.47;59.18
29215;BME280;16252;49.816;7.964;2023-03-31T03:34:58;98801.66;;;13.52;59.36
29215;BME280;16252;49.816;7.964;2023-03-31T03:37:23;98780.66;;;13.39;58.95
29215;BME280;16252;49.816;7.964;2023-03-31T03:39:48;98787.88;;;13.47;58.95
29215;BME280;16252;49.816;7.964;2023-03-31T03:42:14;98781.88;;;13.53;59.17
29215;BME280;16252;49.816;7.964;2023-03-31T03:44:39;98751.97;;;13.39;58.98
29215;BME280;16252;49.816;7.964;2023-03-31T03:47:05;98766.09;;;13.50;59.01
29215;BME280;16252;49.816;7.964;2023-03-31T03:49:30;98725.88;;;13.23;59.25
29215;BME280;16252;49.816;7.964;2023-03-31T03:51:55;98746.91;;;13.36;59.14
29215;BME280;16252;49.816;7.964;2023-03-31T03:54:21;98750.13;;;13.40;59.33
29215;BME280;16252;49.816;7.964;2023-03-31T03:56:46;98759.69;;;13.34;59.42
29215;BME280;16252;49.816;7.964;2023-03-31T03:59:12;98755.59;;;13.22;59.37
29215;BME280;16252;49.816;7.964;2023-03-31T04:01:37;98761.16;;;13.29;59.50
29215;BME280;16252;49.816;7.964;2023-03-31T04:04:03;98754.47;;;13.33;59.68
29215;BME280;16252;49.816;7.964;2023-03-31T04:06:28;98755.66;;;13.38;59.63
29215;BME280;16252;49.816;7.964;2023-03-31T04:08:54;98766.91;;;13.42;59.63
29215;BME280;16252;49.816;7.964;2023-03-31T04:11:19;98738.69;;;13.30;59.55
29215;BME280;16252;49.816;7.964;2023-03-31T04:13:46;98749.94;;;13.41;59.94
29215;BME280;16252;49.816;7.964;2023-03-31T04:16:11;98739.19;;;13.33;59.99
29215;BME280;16252;49.816;7.964;2023-03-31T04:18:37;98728.56;;;13.23;59.61
29215;BME280;16252;49.816;7.964;2023-03-31T04:21:08;98749.94;;;13.41;59.95
29215;BME280;16252;49.816;7.964;2023-03-31T04:23:37;98743.56;;;13.34;59.97
29215;BME280;16252;49.816;7.964;2023-03-31T04:26:06;98761.69;;;13.40;59.91
29215;BME280;16252;49.816;7.964;2023-03-31T04:28:33;98747.56;;;13.30;60.11
29215;BME280;16252;49.816;7.964;2023-03-31T04:31:00;98667.22;;;12.86;59.96
29215;BME280;16252;49.816;7.964;2023-03-31T04:33:25;98718.97;;;13.21;60.70
29215;BME280;16252;49.816;7.964;2023-03-31T04:35:51;98722.50;;;13.21;61.51
29215;BME280;16252;49.816;7.964;2023-03-31T04:38:22;98739.88;;;13.35;62.40
29215;BME280;16252;49.816;7.964;2023-03-31T04:40:50;98736.25;;;13.18;63.14
29215;BME280;16252;49.816;7.964;2023-03-31T04:43:17;98716.59;;;13.01;63.39
29215;BME280;16252;49.816;7.964;2023-03-31T04:45:42;98699.59;;;12.85;62.86
29215;BME280;16252;49.816;7.964;2023-03-31T04:48:08;98713.34;;;12.82;62.65
29215;BME280;16252;49.816;7.964;2023-03-31T04:50:34;98734.38;;;12.94;62.71
29215;BME280;16252;49.816;7.964;2023-03-31T04:53:01;98733.19;;;12.89;62.85
29215;BME280;16252;49.816;7.964;2023-03-31T04:55:26;98698.56;;;12.69;62.91
29215;BME280;16252;49.816;7.964;2023-03-31T04:57:51;98714.19;;;12.74;62.66
29215;BME280;16252;49.816;7.964;2023-03-31T05:00:17;98713.16;;;12.75;63.01
29215;BME280;16252;49.816;7.964;2023-03-31T05:02:43;98707.94;;;12.73;62.99
29215;BME280;16252;49.816;7.964;2023-03-31T05:05:08;98696.91;;;12.76;63.07
29215;BME280;16252;49.816;7.964;2023-03-31T05:07:34;98691.84;;;12.73;63.11
29215;BME280;16252;49.816;7.964;2023-03-31T05:10:00;98690.53;;;12.77;63.22
29215;BME280;16252;49.816;7.964;2023-03-31T05:12:25;98684.66;;;12.82;63.43
29215;BME280;16252;49.816;7.964;2023-03-31T05:14:50;98645.03;;;12.68;63.62
29215;BME280;16252;49.816;7.964;2023-03-31T05:17:16;98624.25;;;12.62;63.57
29215;BME280;16252;49.816;7.964;2023-03-31T05:19:42;98640.69;;;12.75;63.39
29215;BME280;16252;49.816;7.964;2023-03-31T05:22:07;98655.97;;;12.83;63.73
29215;BME280;16252;49.816;7.964;2023-03-31T05:24:32;98602.91;;;12.52;64.01
29215;BME280;16252;49.816;7.964;2023-03-31T05:26:58;98637.34;;;12.73;63.84
29215;BME280;16252;49.816;7.964;2023-03-31T05:29:23;98595.00;;;12.50;63.99
29215;BME280;16252;49.816;7.964;2023-03-31T05:31:49;98626.94;;;12.86;64.30
29215;BME280;16252;49.816;7.964;2023-03-31T05:34:15;98501.94;;;12.18;64.34
29215;BME280;16252;49.816;7.964;2023-03-31T05:36:40;98604.34;;;12.89;64.36
29215;BME280;16252;49.816;7.964;2023-03-31T05:39:08;98579.13;;;12.73;64.28
29215;BME280;16252;49.816;7.964;2023-03-31T05:41:33;98584.69;;;12.88;64.41
29215;BME280;16252;49.816;7.964;2023-03-31T05:43:59;98586.53;;;12.88;64.22
29215;BME280;16252;49.816;7.964;2023-03-31T05:46:26;98558.19;;;12.77;64.25
29215;BME280;16252;49.816;7.964;2023-03-31T05:48:51;98552.47;;;12.80;64.36
29215;BME280;16252;49.816;7.964;2023-03-31T05:51:16;98537.06;;;12.74;64.25
29215;BME280;16252;49.816;7.964;2023-03-31T05:53:42;98515.25;;;12.69;64.37
29215;BME280;16252;49.816;7.964;2023-03-31T05:56:08;98517.44;;;12.82;64.54
29215;BME280;16252;49.816;7.964;2023-03-31T05:58:34;98480.88;;;12.64;64.63
29215;BME280;16252;49.816;7.964;2023-03-31T06:01:04;98497.97;;;12.79;64.63
29215;BME280;16252;49.816;7.964;2023-03-31T06:03:32;98488.75;;;12.74;64.87
29215;BME280;16252;49.816;7.964;2023-03-31T06:06:00;98488.22;;;12.70;64.58
29215;BME280;16252;49.816;7.964;2023-03-31T06:08:27;98499.66;;;12.72;64.81
29215;BME280;16252;49.816;7.964;2023-03-31T06:10:52;98499.50;;;12.74;64.91
29215;BME280;16252;49.816;7.964;2023-03-31T06:13:18;98479.84;;;12.65;64.86
29215;BME280;16252;49.816;7.964;2023-03-31T06:15:54;98488.41;;;12.85;65.28
29215;BME280;16252;49.816;7.964;2023-03-31T06:18:20;98482.88;;;12.87;64.73
29215;BME280;16252;49.816;7.964;2023-03-31T06:20:45;98482.34;;;12.83;64.45
29215;BME280;16252;49.816;7.964;2023-03-31T06:23:11;98496.31;;;12.87;64.71
29215;BME280;16252;49.816;7.964;2023-03-31T06:25:37;98453.84;;;12.66;64.72
29215;BME280;16252;49.816;7.964;2023-03-31T06:28:02;98431.72;;;12.55;64.83
29215;BME280;16252;49.816;7.964;2023-03-31T06:30:28;98470.31;;;12.79;64.79
29215;BME280;16252;49.816;7.964;2023-03-31T06:32:53;98446.16;;;12.79;64.83
29215;BME280;16252;49.816;7.964;2023-03-31T06:35:18;98449.16;;;12.84;64.67
29215;BME280;16252;49.816;7.964;2023-03-31T06:37:44;98423.19;;;12.76;64.34
29215;BME280;16252;49.816;7.964;2023-03-31T06:40:09;98432.72;;;12.87;64.55
29215;BME280;16252;49.816;7.964;2023-03-31T06:42:35;98436.06;;;12.97;64.73
29215;BME280;16252;49.816;7.964;2023-03-31T06:45:00;98421.47;;;12.92;64.41
29215;BME280;16252;49.816;7.964;2023-03-31T06:47:25;98448.63;;;13.05;64.55
29215;BME280;16252;49.816;7.964;2023-03-31T06:49:50;98416.94;;;12.92;64.54
29215;BME280;16252;49.816;7.964;2023-03-31T06:52:16;98451.97;;;13.07;64.40
29215;BME280;16252;49.816;7.964;2023-03-31T06:54:41;98445.59;;;13.08;64.41
29215;BME280;16252;49.816;7.964;2023-03-31T06:57:06;98449.13;;;13.00;64.63
29215;BME280;16252;49.816;7.964;2023-03-31T06:59:32;98456.00;;;13.03;64.87
29215;BME280;16252;49.816;7.964;2023-03-31T07:01:57;98432.69;;;12.95;65.16
29215;BME280;16252;49.816;7.964;2023-03-31T07:04:22;98468.88;;;13.24;65.38
29215;BME280;16252;49.816;7.964;2023-03-31T07:06:47;98459.31;;;13.21;65.04
29215;BME280;16252;49.816;7.964;2023-03-31T07:09:13;98465.69;;;13.20;65.35
29215;BME280;16252;49.816;7.964;2023-03-31T07:11:38;98478.47;;;13.18;65.04
29215;BME280;16252;49.816;7.964;2023-03-31T07:14:03;98493.09;;;13.32;65.00
29215;BME280;16252;49.816;7.964;2023-03-31T07:16:29;98486.69;;;13.33;64.97
29215;BME280;16252;49.816;7.964;2023-03-31T07:18:55;98474.28;;;13.32;65.04
29215;BME280;16252;49.816;7.964;2023-03-31T07:21:23;98486.84;;;13.40;64.86
29215;BME280;16252;49.816;7.964;2023-03-31T07:23:49;98455.44;;;13.24;64.87
29215;BME280;16252;49.816;7.964;2023-03-31T07:26:14;98437.00;;;13.21;65.06
29215;BME280;16252;49.816;7.964;2023-03-31T07:28:40;98435.19;;;13.30;64.66
29215;BME280;16252;49.816;7.964;2023-03-31T07:31:14;98437.34;;;13.34;65.18
29215;BME280;16252;49.816;7.964;2023-03-31T07:33:40;98461.97;;;13.46;65.23
29215;BME280;16252;49.816;7.964;2023-03-31T07:36:06;98460.78;;;13.49;65.26
29215;BME280;16252;49.816;7.964;2023-03-31T07:38:32;98460.63;;;13.50;65.44
29215;BME280;16252;49.816;7.964;2023-03-31T07:40:58;98420.25;;;13.27;65.70
29215;BME280;16252;49.816;7.964;2023-03-31T07:43:23;98459.25;;;13.54;65.68
29215;BME280;16252;49.816;7.964;2023-03-31T07:45:48;98428.75;;;13.39;65.68
29215;BME280;16252;49.816;7.964;2023-03-31T07:48:14;98448.34;;;13.56;65.36
29215;BME280;16252;49.816;7.964;2023-03-31T07:50:39;98476.47;;;13.76;65.13
29215;BME280;16252;49.816;7.964;2023-03-31T07:53:04;98453.63;;;13.72;65.12
29215;BME280;16252;49.816;7.964;2023-03-31T07:55:30;98471.41;;;13.81;64.98
29215;BME280;16252;49.816;7.964;2023-03-31T07:57:55;98471.19;;;13.91;64.27
29215;BME280;16252;49.816;7.964;2023-03-31T08:00:21;98492.13;;;14.04;63.92
29215;BME280;16252;49.816;7.964;2023-03-31T08:02:47;98479.09;;;13.93;63.84
29215;BME280;16252;49.816;7.964;2023-03-31T08:05:14;98488.66;;;13.95;63.80
29215;BME280;16252;49.816;7.964;2023-03-31T08:07:43;98468.19;;;13.86;63.69
29215;BME280;16252;49.816;7.964;2023-03-31T08:10:13;98479.25;;;13.91;63.66
29215;BME280;16252;49.816;7.964;2023-03-31T08:12:38;98447.94;;;13.67;63.29
29215;BME280;16252;49.816;7.964;2023-03-31T08:15:04;98446.59;;;13.71;63.45
29215;BME280;16252;49.816;7.964;2023-03-31T08:17:29;98433.72;;;13.58;63.60
29215;BME280;16252;49.816;7.964;2023-03-31T08:19:55;98426.00;;;13.55;63.86
29215;BME280;16252;49.816;7.964;2023-03-31T08:22:20;98430.88;;;13.60;64.06
29215;BME280;16252;49.816;7.964;2023-03-31T08:24:47;98430.81;;;13.68;64.13
29215;BME280;16252;49.816;7.964;2023-03-31T08:27:12;98422.09;;;13.66;64.26
29215;BME280;16252;49.816;7.964;2023-03-31T08:29:38;98429.22;;;13.82;64.73
29215;BME280;16252;49.816;7.964;2023-03-31T08:32:03;98413.59;;;13.85;65.11
29215;BME280;16252;49.816;7.964;2023-03-31T08:34:28;98410.13;;;14.00;64.94
29215;BME280;16252;49.816;7.964;2023-03-31T08:36:54;98416.84;;;14.27;64.35
29215;BME280;16252;49.816;7.964;2023-03-31T08:39:19;98411.53;;;14.42;64.24
29215;BME280;16252;49.816;7.964;2023-03-31T08:41:59;98419.50;;;14.58;64.24
29215;BME280;16252;49.816;7.964;2023-03-31T08:44:31;98411.38;;;14.66;63.77
29215;BME280;16252;49.816;7.964;2023-03-31T08:47:00;98398.25;;;14.63;63.40
29215;BME280;16252;49.816;7.964;2023-03-31T08:49:35;98387.19;;;14.58;63.08
29215;BME280;16252;49.816;7.964;2023-03-31T08:52:03;98410.16;;;14.69;63.09
29215;BME280;16252;49.816;7.964;2023-03-31T08:54:35;98406.81;;;14.67;62.92
29215;BME280;16252;49.816;7.964;2023-03-31T08:57:02;98405.03;;;14.59;62.63
29215;BME280;16252;49.816;7.964;2023-03-31T08:59:33;98401.59;;;14.65;62.73
29215;BME280;16252;49.816;7.964;2023-03-31T09:05:31;98399.72;;;14.89;62.70
29215;BME280;16252;49.816;7.964;2023-03-31T09:08:18;98428.34;;;15.20;62.45
29215;BME280;16252;49.816;7.964;2023-03-31T09:10:55;98419.06;;;15.37;61.92
29215;BME280;16252;49.816;7.964;2023-03-31T09:16:14;98426.19;;;15.59;60.40
29215;BME280;16252;49.816;7.964;2023-03-31T09:18:40;98403.22;;;15.64;60.36
29215;BME280;16252;49.816;7.964;2023-03-31T09:21:30;98404.28;;;15.77;60.33
29215;BME280;16252;49.816;7.964;2023-03-31T09:24:22;98414.28;;;15.84;60.14
29215;BME280;16252;49.816;7.964;2023-03-31T09:26:54;98381.00;;;15.76;59.52
29215;BME280;16252;49.816;7.964;2023-03-31T09:29:41;98381.69;;;16.00;60.08
29215;BME280;16252;49.816;7.964;2023-03-31T09:32:20;98384.25;;;16.30;59.80
29215;BME280;16252;49.816;7.964;2023-03-31T09:34:50;98396.66;;;16.45;59.12
29215;BME280;16252;49.816;7.964;2023-03-31T09:37:16;98393.13;;;16.45;58.96
29215;BME280;16252;49.816;7.964;2023-03-31T09:39:41;98369.63;;;16.39;58.92
29215;BME280;16252;49.816;7.964;2023-03-31T09:42:11;98381.84;;;16.63;58.59
29215;BME280;16252;49.816;7.964;2023-03-31T09:44:39;98365.00;;;16.61;57.85
29215;BME280;16252;49.816;7.964;2023-03-31T09:49:44;98362.16;;;16.41;56.67
29215;BME280;16252;49.816;7.964;2023-03-31T09:52:24;98407.84;;;16.42;57.88
29215;BME280;16252;49.816;7.964;2023-03-31T09:54:53;98383.94;;;16.18;57.36
29215;BME280;16252;49.816;7.964;2023-03-31T09:57:29;98409.59;;;15.92;56.66
29215;BME280;16252;49.816;7.964;2023-03-31T10:00:14;98407.50;;;15.58;56.59
29215;BME280;16252;49.816;7.964;2023-03-31T10:02:47;98392.94;;;15.08;57.39
29215;BME280;16252;49.816;7.964;2023-03-31T10:05:30;98408.09;;;14.94;57.61
29215;BME280;16252;49.816;7.964;2023-03-31T10:08:37;98399.03;;;14.72;58.35
29215;BME280;16252;49.816;7.964;2023-03-31T10:14:22;98403.16;;;14.37;59.58
29215;BME280;16252;49.816;7.964;2023-03-31T10:16:33;98396.84;;;14.29;59.80
29215;BME280;16252;49.816;7.964;2023-03-31T10:21:38;98385.59;;;14.26;61.04
29215;BME280;16252;49.816;7.964;2023-03-31T10:24:08;98365.91;;;14.25;60.87
29215;BME280;16252;49.816;7.964;2023-03-31T10:26:35;98379.41;;;14.40;61.35
29215;BME280;16252;49.816;7.964;2023-03-31T10:29:00;98349.94;;;14.47;62.45
29215;BME280;16252;49.816;7.964;2023-03-31T10:31:33;98320.69;;;14.67;63.16
29215;BME280;16252;49.816;7.964;2023-03-31T10:34:04;98345.28;;;15.23;63.77
29215;BME280;16252;49.816;7.964;2023-03-31T10:36:30;98334.78;;;15.65;62.75
29215;BME280;16252;49.816;7.964;2023-03-31T10:38:56;98345.06;;;16.12;63.02
29215;BME280;16252;49.816;7.964;2023-03-31T10:41:28;98301.66;;;16.57;63.25
29215;BME280;16252;49.816;7.964;2023-03-31T10:43:59;98337.47;;;17.42;62.92
29215;BME280;16252;49.816;7.964;2023-03-31T10:49:26;98302.75;;;18.67;61.81
29215;BME280;16252;49.816;7.964;2023-03-31T10:51:58;98309.09;;;19.25;59.32
29215;BME280;16252;49.816;7.964;2023-03-31T10:54:25;98307.38;;;19.83;57.76
29215;BME280;16252;49.816;7.964;2023-03-31T10:56:53;98299.81;;;20.23;56.06
29215;BME280;16252;49.816;7.964;2023-03-31T11:10:32;98301.19;;;21.56;53.77
29215;BME280;16252;49.816;7.964;2023-03-31T11:13:08;98298.94;;;21.53;50.50
29215;BME280;16252;49.816;7.964;2023-03-31T11:15:41;98297.84;;;21.36;49.98
29215;BME280;16252;49.816;7.964;2023-03-31T11:18:34;98294.41;;;21.10;50.87
29215;BME280;16252;49.816;7.964;2023-03-31T11:29:44;98311.19;;;20.07;49.66
29215;BME280;16252;49.816;7.964;2023-03-31T11:40:43;98297.81;;;19.28;51.62
29215;BME280;16252;49.816;7.964;2023-03-31T11:43:23;98295.97;;;19.16;51.08
29215;BME280;16252;49.816;7.964;2023-03-31T11:45:56;98301.22;;;19.04;50.63
29215;BME280;16252;49.816;7.964;2023-03-31T11:48:46;98298.09;;;19.00;51.64
29215;BME280;16252;49.816;7.964;2023-03-31T11:51:24;98295.00;;;18.83;52.17
29215;BME280;16252;49.816;7.964;2023-03-31T11:53:52;98297.31;;;18.67;51.22
29215;BME280;16252;49.816;7.964;2023-03-31T11:56:20;98287.75;;;18.44;49.88
29215;BME280;16252;49.816;7.964;2023-03-31T11:58:54;98294.84;;;18.32;51.15
29215;BME280;16252;49.816;7.964;2023-03-31T12:01:34;98283.56;;;17.88;51.33
29215;BME280;16252;49.816;7.964;2023-03-31T12:04:30;98290.00;;;17.81;51.74
29215;BME280;16252;49.816;7.964;2023-03-31T12:07:03;98267.22;;;17.48;51.64
29215;BME280;16252;49.816;7.964;2023-03-31T12:09:49;98280.94;;;17.47;51.84
29215;BME280;16252;49.816;7.964;2023-03-31T12:12:27;98262.78;;;17.27;52.81
29215;BME280;16252;49.816;7.964;2023-03-31T12:15:13;98278.88;;;17.42;52.78
29215;BME280;16252;49.816;7.964;2023-03-31T12:17:46;98264.50;;;17.35;52.31
29215;BME280;16252;49.816;7.964;2023-03-31T12:20:32;98268.72;;;17.58;53.06
29215;BME280;16252;49.816;7.964;2023-03-31T12:23:00;98263.25;;;17.44;51.85
29215;BME280;16252;49.816;7.964;2023-03-31T12:25:43;98269.09;;;17.48;52.10
29215;BME280;16252;49.816;7.964;2023-03-31T12:28:11;98257.41;;;17.34;51.97
29215;BME280;16252;49.816;7.964;2023-03-31T12:30:38;98306.28;;;17.39;53.56
29215;BME280;16252;49.816;7.964;2023-03-31T12:33:21;98289.22;;;17.39;53.43
29215;BME280;16252;49.816;7.964;2023-03-31T12:36:40;98273.94;;;17.11;52.99
29215;BME280;16252;49.816;7.964;2023-03-31T12:39:12;98287.44;;;17.11;52.36
29215;BME280;16252;49.816;7.964;2023-03-31T12:44:29;98303.78;;;16.33;53.18
29215;BME280;16252;49.816;7.964;2023-03-31T12:52:35;98300.97;;;15.26;55.17
29215;BME280;16252;49.816;7.964;2023-03-31T12:57:41;98311.03;;;14.72;55.91
29215;BME280;16252;49.816;7.964;2023-03-31T13:02:39;98309.66;;;14.39;56.27
29215;BME280;16252;49.816;7.964;2023-03-31T13:08:06;98301.50;;;14.09;57.24
29215;BME280;16252;49.816;7.964;2023-03-31T13:10:49;98287.56;;;13.91;57.53
29215;BME280;16252;49.816;7.964;2023-03-31T13:13:16;98281.94;;;13.77;57.61
29215;BME280;16252;49.816;7.964;2023-03-31T13:15:53;98273.22;;;13.75;57.23
29215;BME280;16252;49.816;7.964;2023-03-31T13:18:20;98236.69;;;13.66;58.50
29215;BME280;16252;49.816;7.964;2023-03-31T13:20:57;98235.19;;;13.63;58.41
29215;BME280;16252;49.816;7.964;2023-03-31T13:23:24;98252.06;;;13.72;58.56
29215;BME280;16252;49.816;7.964;2023-03-31T13:25:56;98261.38;;;13.84;58.77
29215;BME280;16252;49.816;7.964;2023-03-31T13:30:50;98265.75;;;13.85;58.62
29215;BME280;16252;49.816;7.964;2023-03-31T13:35:47;98264.44;;;14.19;59.22
29215;BME280;16252;49.816;7.964;2023-03-31T13:44:31;98260.78;;;14.50;58.62
29215;BME280;16252;49.816;7.964;2023-03-31T13:53:24;98240.31;;;14.64;58.20
29215;BME280;16252;49.816;7.964;2023-03-31T13:56:14;98230.28;;;14.72;57.87
29215;BME280;16252;49.816;7.964;2023-03-31T14:01:46;98181.25;;;14.47;58.24
29215;BME280;16252;49.816;7.964;2023-03-31T14:05:00;98240.09;;;14.95;57.54
29215;BME280;16252;49.816;7.964;2023-03-31T14:07:36;98178.16;;;14.59;58.29
29215;BME280;16252;49.816;7.964;2023-03-31T14:10:02;98203.53;;;14.86;58.47
29215;BME280;16252;49.816;7.964;2023-03-31T14:12:36;98221.22;;;15.10;58.81
29215;BME280;16252;49.816;7.964;2023-03-31T14:15:04;98220.00;;;15.12;58.77
29215;BME280;16252;49.816;7.964;2023-03-31T14:17:33;98170.75;;;14.97;58.47
29215;BME280;16252;49.816;7.964;2023-03-31T14:20:17;98215.81;;;15.25;58.75
29215;BME280;16252;49.816;7.964;2023-03-31T14:23:07;98223.63;;;15.41;58.31
29215;BME280;16252;49.816;7.964;2023-03-31T14:25:59;98238.66;;;15.50;58.04
29215;BME280;16252;49.816;7.964;2023-03-31T14:31:16;98235.06;;;15.43;57.56
29215;BME280;16252;49.816;7.964;2023-03-31T14:36:38;98190.50;;;15.04;55.91
29215;BME280;16252;49.816;7.964;2023-03-31T14:39:08;98210.84;;;14.92;55.85
29215;BME280;16252;49.816;7.964;2023-03-31T14:41:35;98208.28;;;14.84;56.18
29215;BME280;16252;49.816;7.964;2023-03-31T14:44:04;98176.16;;;14.52;56.09
29215;BME280;16252;49.816;7.964;2023-03-31T14:46:31;98190.75;;;14.58;56.58
29215;BME280;16252;49.816;7.964;2023-03-31T14:48:57;98190.28;;;14.55;56.95
29215;BME280;16252;49.816;7.964;2023-03-31T14:51:28;98157.41;;;14.44;56.87
29215;BME280;16252;49.816;7.964;2023-03-31T14:53:58;98193.91;;;14.77;56.80
29215;BME280;16252;49.816;7.964;2023-03-31T14:56:39;98209.56;;;14.88;56.66
29215;BME280;16252;49.816;7.964;2023-03-31T14:59:06;98219.31;;;14.89;56.94
29215;BME280;16252;49.816;7.964;2023-03-31T15:01:33;98226.25;;;14.98;57.71
29215;BME280;16252;49.816;7.964;2023-03-31T15:04:11;98203.88;;;14.98;57.64
29215;BME280;16252;49.816;7.964;2023-03-31T15:06:39;98172.25;;;14.85;57.98
29215;BME280;16252;49.816;7.964;2023-03-31T15:09:06;98198.06;;;15.15;57.69